createdAt,value
2022-12-12T00:00:19.715Z,18.48
2022-12-12T00:02:52.698Z,18.27
2022-12-12T00:05:26.545Z,18.40
2022-12-12T00:07:59.440Z,17.33
2022-12-12T00:10:34.008Z,16.98
2022-12-12T00:13:08.471Z,17.42
2022-12-12T00:15:41.524Z,18.70
2022-12-12T00:18:14.442Z,18.98
2022-12-12T00:20:52.651Z,18.63
2022-12-12T00:23:28.309Z,18.27
2022-12-12T00:26:06.571Z,19.30
2022-12-12T00:28:41.690Z,17.25
2022-12-12T00:31:15.857Z,19.45
2022-12-12T00:33:54.742Z,17.85
2022-12-12T00:36:29.806Z,18.65
2022-12-12T00:39:06.810Z,18.63
2022-12-12T00:41:41.266Z,19.65
2022-12-12T00:44:14.119Z,18.00
2022-12-12T00:46:47.232Z,21.05
2022-12-12T00:49:20.231Z,20.40
2022-12-12T00:51:53.038Z,19.10
2022-12-12T00:57:00.710Z,17.27
2022-12-12T00:59:33.505Z,21.95
2022-12-12T01:02:06.299Z,20.45
2022-12-12T01:07:12.384Z,20.73
2022-12-12T01:09:45.366Z,20.60
2022-12-12T01:12:19.463Z,20.67
2022-12-12T01:14:52.306Z,20.95
2022-12-12T01:17:25.380Z,20.00
2022-12-12T01:19:58.135Z,22.20
2022-12-12T01:22:31.395Z,20.88
2022-12-12T01:25:04.650Z,21.63
2022-12-12T01:27:40.242Z,21.65
2022-12-12T01:30:17.257Z,21.02
2022-12-12T01:32:50.770Z,20.88
2022-12-12T01:35:24.609Z,19.70
2022-12-12T01:37:57.855Z,19.83
2022-12-12T01:40:34.398Z,20.58
2022-12-12T01:43:12.694Z,19.73
2022-12-12T01:46:41.421Z,20.25
2022-12-12T01:49:22.454Z,21.38
2022-12-12T01:52:04.192Z,19.17
2022-12-12T01:54:42.373Z,19.85
2022-12-12T01:57:21.055Z,19.67
2022-12-12T01:59:58.796Z,18.98
2022-12-12T02:02:32.736Z,18.23
2022-12-12T02:05:13.111Z,19.30
2022-12-12T02:07:46.593Z,18.63
2022-12-12T02:10:20.496Z,18.55
2022-12-12T02:12:58.157Z,18.88
2022-12-12T02:15:40.664Z,17.92
2022-12-12T02:18:23.562Z,14.43
2022-12-12T02:21:12.401Z,17.70
2022-12-12T02:24:16.294Z,18.10
2022-12-12T02:27:19.825Z,16.92
2022-12-12T02:30:14.133Z,17.23
2022-12-12T02:32:59.812Z,17.27
2022-12-12T02:35:42.694Z,17.50
2022-12-12T02:38:25.791Z,18.48
2022-12-12T02:41:10.280Z,18.42
2022-12-12T02:43:50.025Z,17.33
2022-12-12T02:46:29.328Z,16.55
2022-12-12T02:49:10.879Z,15.63
2022-12-12T02:51:44.299Z,16.75
2022-12-12T02:54:20.907Z,16.63
2022-12-12T02:57:00.486Z,15.95
2022-12-12T02:59:38.268Z,15.63
2022-12-12T03:03:16.629Z,16.33
2022-12-12T03:06:22.248Z,15.90
2022-12-12T03:09:06.257Z,15.32
2022-12-12T03:11:52.221Z,17.55
2022-12-12T03:14:28.047Z,15.95
2022-12-12T03:17:07.405Z,15.43
2022-12-12T03:19:47.978Z,17.40
2022-12-12T03:22:27.426Z,15.70
2022-12-12T03:25:08.653Z,16.75
2022-12-12T03:27:51.948Z,16.45
2022-12-12T03:30:25.271Z,15.75
2022-12-12T03:33:07.949Z,17.25
2022-12-12T03:35:47.901Z,16.33
2022-12-12T03:38:25.839Z,15.50
2022-12-12T03:41:01.852Z,18.08
2022-12-12T03:43:38.953Z,15.88
2022-12-12T03:46:18.431Z,17.92
2022-12-12T03:49:05.442Z,15.32
2022-12-12T03:51:43.508Z,16.15
2022-12-12T03:54:23.151Z,16.10
2022-12-12T03:57:01.757Z,16.83
2022-12-12T03:59:45.105Z,17.40
2022-12-12T04:05:01.693Z,14.98
2022-12-12T04:07:38.734Z,16.60
2022-12-12T04:10:32.526Z,16.33
2022-12-12T04:13:13.500Z,15.27
2022-12-12T04:15:55.218Z,17.25
2022-12-12T04:18:37.459Z,15.30
2022-12-12T04:21:53.390Z,16.15
2022-12-12T04:24:36.450Z,15.52
2022-12-12T04:27:18.829Z,15.93
2022-12-12T04:29:56.850Z,16.17
2022-12-12T04:32:35.614Z,16.10
2022-12-12T04:35:13.637Z,15.98
2022-12-12T04:37:50.929Z,15.25
2022-12-12T04:40:27.006Z,16.20
2022-12-12T04:43:05.620Z,16.90
2022-12-12T04:45:45.365Z,17.30
2022-12-12T04:48:21.547Z,14.63
2022-12-12T04:50:55.132Z,14.40
2022-12-12T04:53:33.870Z,16.02
2022-12-12T04:56:10.510Z,15.95
2022-12-12T04:58:45.066Z,13.90
2022-12-12T05:01:26.806Z,15.05
2022-12-12T05:04:03.113Z,15.15
2022-12-12T05:06:44.061Z,15.60
2022-12-12T05:09:19.023Z,15.63
2022-12-12T05:11:52.004Z,14.77
2022-12-12T05:17:06.421Z,13.75
2022-12-12T05:19:39.327Z,14.43
2022-12-12T05:22:12.144Z,13.45
2022-12-12T05:27:17.967Z,13.43
2022-12-12T05:32:24.610Z,14.15
2022-12-12T05:34:57.427Z,14.18
2022-12-12T05:37:30.237Z,14.45
2022-12-12T05:40:03.510Z,13.32
2022-12-12T05:42:36.449Z,13.15
2022-12-12T05:47:45.661Z,13.20
2022-12-12T05:52:51.404Z,13.45
2022-12-12T05:57:56.913Z,13.03
2022-12-12T06:00:31.446Z,13.02
2022-12-12T06:03:04.337Z,12.85
2022-12-12T06:08:09.770Z,13.17
2022-12-12T06:13:15.892Z,12.23
2022-12-12T06:18:23.503Z,12.02
2022-12-12T06:21:03.368Z,13.15
2022-12-12T06:23:37.470Z,13.20
2022-12-12T06:26:12.396Z,12.55
2022-12-12T06:28:47.156Z,12.43
2022-12-12T06:31:21.479Z,12.13
2022-12-12T06:33:54.486Z,12.70
2022-12-12T06:39:01.870Z,9.32
2022-12-12T06:41:35.327Z,13.02
2022-12-12T06:44:09.052Z,12.32
2022-12-12T06:46:43.210Z,11.82
2022-12-12T06:49:16.008Z,12.40
2022-12-12T06:54:21.719Z,12.85
2022-12-12T06:56:54.638Z,12.07
2022-12-12T06:59:29.556Z,12.82
2022-12-12T07:02:03.847Z,12.00
2022-12-12T07:04:36.771Z,12.00
2022-12-12T07:09:42.181Z,11.13
2022-12-12T07:14:47.823Z,13.02
2022-12-12T07:19:55.443Z,11.02
2022-12-12T07:22:28.417Z,12.38
2022-12-12T07:27:33.707Z,11.82
2022-12-12T07:30:07.370Z,12.73
2022-12-12T07:32:41.770Z,13.57
2022-12-12T07:35:15.077Z,11.20
2022-12-12T07:37:48.550Z,11.88
2022-12-12T07:40:21.442Z,13.18
2022-12-12T07:45:28.161Z,13.02
2022-12-12T07:48:02.337Z,14.00
2022-12-12T07:50:35.234Z,15.02
2022-12-12T07:55:41.847Z,14.80
2022-12-12T07:58:15.994Z,15.90
2022-12-12T08:00:48.887Z,17.77
2022-12-12T08:03:23.085Z,18.23
2022-12-12T08:05:55.747Z,16.40
2022-12-12T08:08:28.700Z,18.13
2022-12-12T08:11:01.450Z,19.10
2022-12-12T08:13:35.634Z,20.25
2022-12-12T08:16:13.616Z,18.13
2022-12-12T08:18:49.041Z,20.67
2022-12-12T08:21:25.767Z,18.48
2022-12-12T08:24:01.141Z,20.83
2022-12-12T08:26:33.948Z,21.13
2022-12-12T08:29:07.180Z,22.15
2022-12-12T08:31:41.032Z,19.75
2022-12-12T08:34:15.423Z,21.73
2022-12-12T08:36:49.094Z,21.92
2022-12-12T08:39:22.568Z,22.90
2022-12-12T08:41:55.448Z,21.92
2022-12-12T08:47:01.080Z,16.95
2022-12-12T08:49:35.432Z,21.85
2022-12-12T08:52:10.029Z,24.02
2022-12-12T08:54:42.848Z,24.45
2022-12-12T08:59:48.671Z,24.00
2022-12-12T09:02:21.538Z,23.85
2022-12-12T09:07:28.293Z,23.40
2022-12-12T09:10:01.169Z,25.20
2022-12-12T09:12:38.355Z,24.67
2022-12-12T09:15:14.511Z,24.83
2022-12-12T09:17:47.726Z,23.20
2022-12-12T09:20:22.029Z,24.67
2022-12-12T09:22:54.955Z,24.65
2022-12-12T09:28:00.631Z,22.65
2022-12-12T09:30:33.449Z,24.25
2022-12-12T09:33:06.813Z,22.98
2022-12-12T09:35:41.598Z,23.83
2022-12-12T09:38:15.319Z,21.80
2022-12-12T09:40:54.853Z,22.15
2022-12-12T09:43:30.332Z,22.65
2022-12-12T09:46:05.835Z,23.98
2022-12-12T09:48:43.082Z,23.63
2022-12-12T09:51:17.915Z,24.98
2022-12-12T09:53:52.160Z,22.95
2022-12-12T09:56:30.338Z,22.90
2022-12-12T09:59:09.892Z,23.13
2022-12-12T10:01:58.740Z,23.17
2022-12-12T10:04:39.151Z,23.52
2022-12-12T10:07:20.806Z,22.70
2022-12-12T10:10:03.994Z,23.42
2022-12-12T10:15:26.106Z,23.65
2022-12-12T10:18:01.592Z,22.25
2022-12-12T10:20:41.961Z,22.58
2022-12-12T10:23:22.640Z,22.33
2022-12-12T10:25:58.339Z,22.30
2022-12-12T10:28:33.273Z,24.08
2022-12-12T10:31:28.850Z,23.58
2022-12-12T10:34:19.025Z,22.85
2022-12-12T10:37:09.199Z,22.50
2022-12-12T10:39:51.658Z,22.45
2022-12-12T10:42:30.421Z,23.30
2022-12-12T10:45:34.097Z,22.80
2022-12-12T10:50:44.332Z,23.08
2022-12-12T10:53:17.197Z,21.55
2022-12-12T10:55:56.227Z,22.33
2022-12-12T10:58:37.753Z,21.27
2022-12-12T11:01:28.382Z,22.38
2022-12-12T11:04:15.597Z,21.75
2022-12-12T11:06:51.880Z,22.52
2022-12-12T11:09:27.041Z,22.40
2022-12-12T11:12:04.198Z,21.50
2022-12-12T11:14:39.243Z,21.40
2022-12-12T11:17:22.121Z,21.80
2022-12-12T11:19:57.550Z,20.95
2022-12-12T11:22:33.977Z,21.67
2022-12-12T11:25:07.556Z,19.55
2022-12-12T11:27:42.860Z,20.95
2022-12-12T11:30:24.711Z,20.02
2022-12-12T11:32:58.341Z,20.85
2022-12-12T11:35:41.102Z,20.00
2022-12-12T11:38:21.829Z,18.83
2022-12-12T11:41:01.652Z,18.45
2022-12-12T11:43:38.356Z,18.70
2022-12-12T11:46:19.076Z,18.98
2022-12-12T11:48:59.394Z,18.23
2022-12-12T11:51:36.243Z,19.73
2022-12-12T11:54:14.638Z,19.02
2022-12-12T11:56:55.282Z,20.20
2022-12-12T11:59:43.190Z,18.48
2022-12-12T12:02:45.088Z,18.88
2022-12-12T12:05:28.869Z,19.58
2022-12-12T12:08:17.935Z,18.90
2022-12-12T12:11:05.448Z,19.50
2022-12-12T12:13:51.177Z,17.30
2022-12-12T12:16:47.537Z,17.95
2022-12-12T12:19:29.266Z,17.65
2022-12-12T12:22:36.218Z,17.52
2022-12-12T12:25:50.253Z,15.82
2022-12-12T12:28:48.156Z,18.27
2022-12-12T12:31:28.411Z,17.65
2022-12-12T12:34:21.464Z,17.98
2022-12-12T12:37:09.589Z,17.17
2022-12-12T12:40:00.035Z,18.63
2022-12-12T12:42:50.037Z,16.90
2022-12-12T12:45:34.145Z,16.45
2022-12-12T12:48:16.911Z,16.90
2022-12-12T12:50:57.056Z,17.77
2022-12-12T12:53:36.149Z,16.00
2022-12-12T12:56:21.071Z,16.33
2022-12-12T12:59:11.186Z,16.15
2022-12-12T13:01:47.244Z,16.00
2022-12-12T13:04:25.471Z,16.83
2022-12-12T13:07:04.231Z,17.67
2022-12-12T13:09:43.708Z,16.02
2022-12-12T13:12:32.201Z,15.52
2022-12-12T13:15:14.046Z,15.88
2022-12-12T13:17:53.235Z,15.45
2022-12-12T13:20:27.024Z,14.93
2022-12-12T13:23:13.820Z,14.75
2022-12-12T13:25:56.521Z,15.57
2022-12-12T13:28:36.262Z,16.40
2022-12-12T13:31:36.808Z,14.40
2022-12-12T13:34:16.341Z,14.65
2022-12-12T13:36:52.506Z,14.55
2022-12-12T13:39:30.744Z,15.38
2022-12-12T13:48:48.336Z,14.05
2022-12-12T13:51:36.067Z,14.23
2022-12-12T13:54:52.075Z,13.98
2022-12-12T13:57:30.948Z,13.07
2022-12-12T14:00:21.766Z,12.40
2022-12-12T14:03:28.799Z,11.82
2022-12-12T14:06:13.327Z,12.38
2022-12-12T14:08:51.102Z,12.32
2022-12-12T14:11:32.126Z,12.65
2022-12-12T14:14:23.432Z,11.25
2022-12-12T14:16:57.786Z,11.82
2022-12-12T14:19:35.598Z,11.82
2022-12-12T14:22:27.395Z,12.07
2022-12-12T14:25:09.310Z,12.63
2022-12-12T14:28:17.342Z,11.35
2022-12-12T14:30:59.269Z,11.32
2022-12-12T14:34:03.666Z,10.77
2022-12-12T14:37:16.966Z,12.27
2022-12-12T14:40:03.785Z,8.90
2022-12-12T14:43:19.080Z,11.13
2022-12-12T14:45:40.158Z,10.95
2022-12-12T14:48:20.790Z,11.05
2022-12-12T14:50:58.513Z,11.07
2022-12-12T14:53:35.054Z,10.52
2022-12-12T14:56:13.160Z,11.30
2022-12-12T14:58:50.632Z,10.93
2022-12-12T15:01:31.314Z,10.27
2022-12-12T15:04:09.296Z,10.90
2022-12-12T15:06:43.608Z,10.10
2022-12-12T15:09:20.584Z,10.57
2022-12-12T15:11:56.841Z,10.02
2022-12-12T15:14:29.670Z,9.98
2022-12-12T15:19:41.679Z,10.38
2022-12-12T15:22:21.963Z,9.50
2022-12-12T15:24:59.819Z,9.23
2022-12-12T15:27:46.148Z,9.90
2022-12-12T15:30:27.527Z,9.70
2022-12-12T15:33:05.383Z,8.68
2022-12-12T15:35:50.411Z,9.45
2022-12-12T15:38:23.654Z,8.45
2022-12-12T15:40:59.866Z,9.52
2022-12-12T15:43:37.098Z,8.95
2022-12-12T15:46:15.809Z,8.65
2022-12-12T15:48:54.131Z,8.77
2022-12-12T15:51:33.142Z,8.80
2022-12-12T15:54:06.908Z,7.47
2022-12-12T15:56:40.006Z,8.18
2022-12-12T15:59:19.098Z,8.25
2022-12-12T16:01:51.942Z,8.57
2022-12-12T16:04:28.417Z,8.40
2022-12-12T16:07:21.170Z,7.60
2022-12-12T16:10:21.157Z,8.32
2022-12-12T16:12:59.921Z,8.27
2022-12-12T16:15:36.223Z,7.63
2022-12-12T16:18:19.086Z,8.13
2022-12-12T16:20:54.723Z,8.45
2022-12-12T16:23:34.144Z,8.63
2022-12-12T16:26:10.425Z,8.57
2022-12-12T16:28:43.835Z,9.18
2022-12-12T16:31:19.509Z,8.93
2022-12-12T16:33:54.454Z,7.90
2022-12-12T16:36:29.537Z,8.57
2022-12-12T16:39:04.459Z,8.43
2022-12-12T16:41:38.339Z,9.05
2022-12-12T16:44:11.366Z,9.30
2022-12-12T16:46:44.456Z,9.32
2022-12-12T16:49:17.539Z,9.73
2022-12-12T16:51:50.738Z,8.57
2022-12-12T16:54:25.061Z,10.18
2022-12-12T16:56:57.907Z,9.88
2022-12-12T16:59:30.854Z,9.48
2022-12-12T17:04:36.491Z,7.50
2022-12-12T17:09:43.387Z,7.03
2022-12-12T17:12:17.711Z,9.52
2022-12-12T17:14:50.583Z,9.02
2022-12-12T17:17:23.361Z,11.25
2022-12-12T17:19:56.189Z,10.30
2022-12-12T17:25:03.260Z,7.32
2022-12-12T17:27:36.497Z,8.70
2022-12-12T17:30:13.931Z,9.27
2022-12-12T17:35:37.310Z,9.38
2022-12-12T17:40:53.919Z,9.13
2022-12-12T17:43:26.790Z,9.85
2022-12-12T17:48:35.415Z,9.45
2022-12-12T17:51:09.897Z,9.15
2022-12-12T17:53:42.781Z,10.75
2022-12-12T17:58:51.431Z,10.25
2022-12-12T18:01:26.619Z,10.77
2022-12-12T18:04:00.883Z,9.93
2022-12-12T18:06:36.185Z,10.00
2022-12-12T18:09:09.103Z,10.45
2022-12-12T18:11:44.059Z,10.52
2022-12-12T18:14:19.125Z,10.63
2022-12-12T18:16:53.393Z,10.50
2022-12-12T18:19:29.175Z,9.95
2022-12-12T18:22:02.515Z,11.13
2022-12-12T18:24:35.989Z,9.77
2022-12-12T18:27:10.743Z,9.23
2022-12-12T18:29:44.177Z,10.43
2022-12-12T18:32:17.747Z,10.18
2022-12-12T18:34:51.192Z,10.57
2022-12-12T18:37:24.428Z,10.05
2022-12-12T18:39:58.042Z,9.95
2022-12-12T18:42:32.480Z,10.98
2022-12-12T18:45:10.330Z,9.70
2022-12-12T18:47:44.407Z,11.45
2022-12-12T18:50:19.056Z,10.43
2022-12-12T18:52:53.165Z,11.20
2022-12-12T18:55:30.060Z,11.77
2022-12-12T18:58:04.310Z,10.55
2022-12-12T19:00:40.409Z,12.07
2022-12-12T19:03:16.305Z,11.43
2022-12-12T19:05:49.429Z,11.55
2022-12-12T19:08:22.456Z,10.00
2022-12-12T19:10:55.496Z,11.65
2022-12-12T19:13:29.848Z,10.90
2022-12-12T19:16:05.254Z,12.60
2022-12-12T19:18:39.316Z,10.63
2022-12-12T19:21:17.467Z,11.95
2022-12-12T19:23:51.707Z,11.45
2022-12-12T19:26:27.069Z,12.30
2022-12-12T19:29:04.587Z,11.98
2022-12-12T19:31:37.897Z,11.10
2022-12-12T19:34:13.418Z,13.00
2022-12-12T19:36:46.299Z,11.82
2022-12-12T19:41:52.760Z,10.95
2022-12-12T19:44:27.001Z,12.20
2022-12-12T19:46:59.848Z,11.52
2022-12-12T19:52:12.186Z,11.02
2022-12-12T19:54:46.937Z,11.27
2022-12-12T19:59:55.168Z,11.50
2022-12-12T20:02:28.206Z,11.77
2022-12-12T20:05:01.237Z,12.07
2022-12-12T20:07:34.230Z,12.20
2022-12-12T20:10:07.864Z,12.50
2022-12-12T20:12:49.407Z,11.43
2022-12-12T20:15:28.875Z,12.40
2022-12-12T20:18:02.895Z,11.37
2022-12-12T20:20:35.828Z,13.33
2022-12-12T20:23:08.929Z,12.57
2022-12-12T20:25:43.193Z,12.40
2022-12-12T20:28:16.034Z,11.10
2022-12-12T20:30:53.393Z,12.52
2022-12-12T20:33:26.929Z,10.90
2022-12-12T20:36:05.402Z,12.43
2022-12-12T20:38:39.670Z,11.23
2022-12-12T20:41:14.568Z,12.10
2022-12-12T20:43:48.705Z,11.68
2022-12-12T20:46:25.552Z,12.40
2022-12-12T20:49:00.055Z,12.20
2022-12-12T20:54:30.235Z,11.83
2022-12-12T20:57:03.150Z,12.33
2022-12-12T20:59:36.089Z,11.47
2022-12-12T21:02:11.926Z,12.55
2022-12-12T21:04:45.040Z,12.23
2022-12-12T21:07:17.861Z,11.52
2022-12-12T21:09:50.622Z,12.88
2022-12-12T21:12:23.469Z,12.82
2022-12-12T21:17:37.020Z,11.80
2022-12-12T21:20:10.583Z,12.77
2022-12-12T21:22:43.385Z,12.43
2022-12-12T21:25:16.568Z,11.60
2022-12-12T21:27:49.757Z,12.03
2022-12-12T21:30:22.749Z,11.10
2022-12-12T21:32:56.899Z,13.53
2022-12-12T21:35:29.806Z,12.63
2022-12-12T21:40:37.652Z,12.57
2022-12-12T21:43:10.541Z,12.17
2022-12-12T21:48:17.968Z,9.82
2022-12-12T21:50:50.899Z,12.57
2022-12-12T21:56:10.817Z,12.83
2022-12-12T21:58:45.471Z,12.80
2022-12-12T22:01:20.615Z,13.17
2022-12-12T22:03:55.388Z,12.67
2022-12-12T22:06:31.795Z,11.63
2022-12-12T22:09:08.226Z,12.50
2022-12-12T22:11:48.805Z,12.47
2022-12-12T22:14:25.234Z,13.03
2022-12-12T22:19:33.647Z,12.02
2022-12-12T22:22:07.001Z,12.03
2022-12-12T22:24:40.124Z,12.13
2022-12-12T22:27:15.201Z,12.07
2022-12-12T22:29:48.171Z,13.67
2022-12-12T22:32:21.152Z,13.60
2022-12-12T22:34:58.081Z,12.07
2022-12-12T22:37:30.953Z,12.73
2022-12-12T22:40:04.244Z,11.35
2022-12-12T22:42:37.080Z,12.73
2022-12-12T22:47:46.055Z,11.93
2022-12-12T22:50:20.755Z,12.97
2022-12-12T22:52:56.164Z,12.43
2022-12-12T22:55:30.644Z,13.03
2022-12-12T22:58:04.109Z,12.97
2022-12-12T23:00:37.112Z,13.00
2022-12-12T23:03:09.829Z,14.80
2022-12-12T23:05:44.030Z,12.77
2022-12-12T23:08:17.301Z,12.07
2022-12-12T23:10:52.899Z,13.10
2022-12-12T23:13:26.067Z,12.30
2022-12-12T23:15:59.426Z,13.43
2022-12-12T23:18:32.579Z,12.67
2022-12-12T23:21:10.992Z,12.33
2022-12-12T23:23:48.642Z,12.57
2022-12-12T23:26:23.333Z,13.07
2022-12-12T23:28:56.452Z,11.83
2022-12-12T23:31:31.755Z,12.83
2022-12-12T23:34:07.379Z,12.43
2022-12-12T23:36:44.878Z,12.40
2022-12-12T23:39:19.865Z,12.83
2022-12-12T23:41:53.549Z,13.20
2022-12-12T23:44:26.671Z,11.43
2022-12-12T23:46:59.904Z,13.30
2022-12-12T23:52:06.852Z,10.32
2022-12-12T23:54:39.842Z,12.10
2022-12-12T23:57:15.885Z,12.37
2022-12-12T23:59:48.877Z,12.30
